Time;durP1;ratioP1;P1;durP2;ratioP2;P2;SDS_P1;SDS_P2;PMS_P1;PMS_P2;Temp;Humidity;BMP_temperature;BMP_pressure;BME280_temperature;BME280_humidity;BME280_pressure;Samples;Min_cycle;Max_cycle;Signal;HPM_P1;HPM_P2
2022/05/24 00:01:49;;;;;;;;;;;18.50;90.40;;;;;;4975285;28;20386;-77
2022/05/24 00:04:14;;;;;;;;;;;18.50;90.40;;;;;;4957874;28;20420;-77
2022/05/24 00:06:39;;;;;;;;;;;18.50;90.50;;;;;;4976837;28;19909;-76
2022/05/24 00:09:05;;;;;;;;;;;18.50;90.50;;;;;;4957973;28;19974;-77
2022/05/24 00:11:31;;;;;;;;;;;18.50;90.50;;;;;;4958050;28;20369;-76
2022/05/24 00:13:56;;;;;;;;;;;18.40;90.50;;;;;;4957382;28;19913;-76
2022/05/24 00:16:21;;;;;;;;;;;18.40;90.50;;;;;;4957564;28;19917;-76
2022/05/24 00:18:47;;;;;;;;;;;18.40;90.50;;;;;;4957835;28;19929;-77
2022/05/24 00:21:12;;;;;;;;;;;18.40;90.50;;;;;;4956934;28;19910;-76
2022/05/24 00:23:38;;;;;;;;;;;18.40;90.50;;;;;;4957393;28;19910;-77
2022/05/24 00:29:06;;;;;;;;;;;18.40;90.50;;;;;;4965339;28;19933;-77
2022/05/24 00:31:32;;;;;;;;;;;18.40;90.50;;;;;;4955605;28;20370;-75
2022/05/24 00:33:57;;;;;;;;;;;18.50;90.50;;;;;;4974734;28;19909;-77
2022/05/24 00:36:23;;;;;;;;;;;18.50;90.40;;;;;;4974843;28;19910;-77
2022/05/24 00:38:48;;;;;;;;;;;18.50;90.30;;;;;;4957602;28;19917;-77
2022/05/24 00:41:17;;;;;;;;;;;18.50;90.30;;;;;;4957646;28;19917;-77
2022/05/24 00:43:52;;;;;;;;;;;18.60;90.30;;;;;;4957307;28;20552;-77
2022/05/24 00:46:25;;;;;;;;;;;18.50;90.30;;;;;;4957387;28;19906;-77
2022/05/24 00:48:56;;;;;;;;;;;18.50;90.30;;;;;;4973314;28;19913;-76
2022/05/24 00:51:26;;;;;;;;;;;18.50;90.30;;;;;;4957275;28;19914;-76
2022/05/24 00:53:53;;;;;;;;;;;18.50;90.40;;;;;;4956599;28;19913;-76
2022/05/24 00:56:37;;;;;;;;;;;18.50;90.40;;;;;;4957018;28;19913;-77
2022/05/24 00:59:04;;;;;;;;;;;18.50;90.40;;;;;;4957064;28;19910;-76
2022/05/24 01:01:33;;;;;;;;;;;18.40;90.40;;;;;;4974016;28;20337;-76
2022/05/24 01:03:59;;;;;;;;;;;18.40;90.50;;;;;;4973995;28;19910;-77
2022/05/24 01:06:24;;;;;;;;;;;18.40;90.50;;;;;;4974223;28;20358;-77
2022/05/24 01:08:50;;;;;;;;;;;18.50;90.50;;;;;;4956289;28;19910;-76
2022/05/24 01:11:16;;;;;;;;;;;18.40;90.50;;;;;;4956194;28;19956;-76
2022/05/24 01:13:42;;;;;;;;;;;18.40;90.50;;;;;;4973832;28;20325;-76
2022/05/24 01:16:08;;;;;;;;;;;18.40;90.60;;;;;;4956744;28;19910;-76
2022/05/24 01:18:34;;;;;;;;;;;18.40;90.60;;;;;;4973967;28;19910;-76
2022/05/24 01:21:03;;;;;;;;;;;18.40;90.60;;;;;;4973813;28;20354;-77
2022/05/24 01:23:38;;;;;;;;;;;18.40;90.60;;;;;;4973604;28;20366;-76
2022/05/24 01:26:08;;;;;;;;;;;18.40;90.60;;;;;;4956393;28;20013;-76
2022/05/24 01:28:42;;;;;;;;;;;18.40;90.50;;;;;;4956330;28;19913;-77
2022/05/24 01:31:08;;;;;;;;;;;18.40;90.50;;;;;;4956371;28;19914;-77
2022/05/24 01:36:19;;;;;;;;;;;18.50;90.40;;;;;;4973898;28;20001;-77
2022/05/24 01:38:46;;;;;;;;;;;18.50;90.30;;;;;;4973760;28;19910;-77
2022/05/24 01:41:20;;;;;;;;;;;18.50;90.30;;;;;;4973832;28;19917;-77
2022/05/24 01:43:47;;;;;;;;;;;18.50;90.30;;;;;;4956205;28;19910;-77
2022/05/24 01:46:13;;;;;;;;;;;18.50;90.30;;;;;;4956169;28;19910;-77
2022/05/24 01:48:48;;;;;;;;;;;18.50;90.40;;;;;;4956332;28;19913;-78
2022/05/24 01:51:16;;;;;;;;;;;18.50;90.40;;;;;;4973592;28;20415;-77
2022/05/24 01:53:47;;;;;;;;;;;18.40;90.40;;;;;;4973488;28;20333;-76
2022/05/24 01:56:15;;;;;;;;;;;18.40;90.40;;;;;;4956302;28;19913;-77
2022/05/24 01:58:42;;;;;;;;;;;18.40;90.50;;;;;;4956264;28;20398;-77
2022/05/24 02:01:19;;;;;;;;;;;18.40;90.50;;;;;;4956186;28;19910;-77
2022/05/24 02:03:44;;;;;;;;;;;18.40;90.50;;;;;;4973450;28;20194;-77
2022/05/24 02:06:25;;;;;;;;;;;18.40;90.60;;;;;;4955958;28;20370;-77
2022/05/24 02:08:51;;;;;;;;;;;18.40;90.60;;;;;;4973564;28;19996;-78
2022/05/24 02:11:17;;;;;;;;;;;18.40;90.60;;;;;;4971830;28;19956;-77
2022/05/24 02:13:44;;;;;;;;;;;18.40;90.60;;;;;;4972697;28;19921;-77
2022/05/24 02:16:11;;;;;;;;;;;18.40;90.60;;;;;;4955974;28;19914;-77
2022/05/24 02:18:39;;;;;;;;;;;18.40;90.60;;;;;;4973097;28;20011;-76
2022/05/24 02:21:05;;;;;;;;;;;18.40;90.60;;;;;;4955744;28;19910;-76
2022/05/24 02:23:38;;;;;;;;;;;18.40;90.60;;;;;;4955776;28;19916;-76
2022/05/24 02:26:03;;;;;;;;;;;18.40;90.60;;;;;;4973138;28;19917;-77
2022/05/24 02:28:29;;;;;;;;;;;18.40;90.50;;;;;;4952280;28;19915;-75
2022/05/24 02:30:56;;;;;;;;;;;18.40;90.50;;;;;;4947371;28;19910;-76
2022/05/24 02:33:23;;;;;;;;;;;18.50;90.40;;;;;;4955246;28;19914;-77
2022/05/24 02:35:48;;;;;;;;;;;18.50;90.30;;;;;;4972614;28;19919;-76
2022/05/24 02:38:14;;;;;;;;;;;18.50;90.30;;;;;;4972776;28;20002;-76
2022/05/24 02:43:24;;;;;;;;;;;18.50;90.30;;;;;;4973527;28;20376;-75
2022/05/24 02:45:49;;;;;;;;;;;18.40;90.30;;;;;;4958189;28;19906;-76
2022/05/24 02:48:15;;;;;;;;;;;18.40;90.40;;;;;;4976598;28;19992;-76
2022/05/24 02:50:40;;;;;;;;;;;18.40;90.40;;;;;;4976877;28;20103;-76
2022/05/24 02:53:06;;;;;;;;;;;18.40;90.50;;;;;;4958732;28;20389;-77
2022/05/24 02:55:31;;;;;;;;;;;18.40;90.50;;;;;;4976147;28;19913;-76
2022/05/24 02:57:57;;;;;;;;;;;18.40;90.50;;;;;;4976595;28;19906;-77
2022/05/24 03:00:23;;;;;;;;;;;18.40;90.50;;;;;;4959347;28;20358;-77
2022/05/24 03:02:52;;;;;;;;;;;18.40;90.60;;;;;;4976234;28;19917;-76
2022/05/24 03:05:18;;;;;;;;;;;18.30;90.60;;;;;;4958798;28;19906;-76
2022/05/24 03:10:29;;;;;;;;;;;18.30;90.60;;;;;;4962147;28;19940;-76
2022/05/24 03:15:41;;;;;;;;;;;18.30;90.60;;;;;;4976322;28;19928;-76
2022/05/24 03:18:07;;;;;;;;;;;18.30;90.60;;;;;;4958766;28;19910;-76
2022/05/24 03:20:33;;;;;;;;;;;18.40;90.70;;;;;;4976061;28;19945;-76
2022/05/24 03:22:59;;;;;;;;;;;18.30;90.60;;;;;;4975771;28;19910;-77
2022/05/24 03:25:24;;;;;;;;;;;18.40;90.50;;;;;;4975976;28;20009;-76
2022/05/24 03:27:49;;;;;;;;;;;18.40;90.50;;;;;;4975891;28;19910;-76
2022/05/24 03:30:15;;;;;;;;;;;18.40;90.40;;;;;;4975989;28;19956;-77
2022/05/24 03:32:41;;;;;;;;;;;18.50;90.40;;;;;;4975715;28;20262;-76
2022/05/24 03:35:07;;;;;;;;;;;18.40;90.30;;;;;;4958198;28;19941;-76
2022/05/24 03:37:33;;;;;;;;;;;18.40;90.30;;;;;;4958643;28;19910;-76
2022/05/24 03:39:58;;;;;;;;;;;18.40;90.30;;;;;;4975859;28;19958;-76
2022/05/24 03:42:23;;;;;;;;;;;18.40;90.30;;;;;;4975728;28;19973;-76
2022/05/24 03:44:49;;;;;;;;;;;18.40;90.40;;;;;;4958169;28;19933;-76
2022/05/24 03:47:14;;;;;;;;;;;18.40;90.40;;;;;;4958345;28;20270;-76
2022/05/24 03:49:40;;;;;;;;;;;18.40;90.40;;;;;;4975341;28;20215;-76
2022/05/24 03:52:06;;;;;;;;;;;18.40;90.50;;;;;;4957346;28;19921;-76
2022/05/24 03:54:31;;;;;;;;;;;18.30;90.50;;;;;;4975354;28;20044;-76
2022/05/24 03:59:41;;;;;;;;;;;18.30;90.50;;;;;;4975686;28;20324;-77
2022/05/24 04:02:06;;;;;;;;;;;18.30;90.60;;;;;;4974958;28;19906;-76
2022/05/24 04:04:32;;;;;;;;;;;18.30;90.60;;;;;;4957604;28;20009;-76
2022/05/24 04:06:58;;;;;;;;;;;18.30;90.60;;;;;;4975260;28;20551;-76
2022/05/24 04:09:23;;;;;;;;;;;18.30;90.60;;;;;;4975621;28;19919;-76
2022/05/24 04:11:48;;;;;;;;;;;18.30;90.60;;;;;;4972499;28;20377;-76
2022/05/24 04:14:14;;;;;;;;;;;18.30;90.60;;;;;;4974625;28;19992;-76
2022/05/24 04:16:39;;;;;;;;;;;18.30;90.60;;;;;;4957939;28;19949;-76
2022/05/24 04:19:05;;;;;;;;;;;18.30;90.70;;;;;;4975331;28;19957;-76
2022/05/24 04:21:30;;;;;;;;;;;18.30;90.60;;;;;;4957952;28;20457;-76
2022/05/24 04:23:56;;;;;;;;;;;18.40;90.80;;;;;;4974681;28;19906;-76
2022/05/24 04:26:21;;;;;;;;;;;18.40;90.50;;;;;;4974885;28;19912;-77
2022/05/24 04:28:47;;;;;;;;;;;18.40;90.50;;;;;;4974745;28;20366;-77
2022/05/24 04:31:12;;;;;;;;;;;18.40;90.40;;;;;;4974912;28;19910;-76
2022/05/24 04:33:38;;;;;;;;;;;18.40;90.40;;;;;;4957289;28;19914;-76
2022/05/24 04:36:03;;;;;;;;;;;18.40;90.30;;;;;;4957479;28;19906;-76
2022/05/24 04:38:29;;;;;;;;;;;18.40;90.30;;;;;;4974702;28;19913;-77
2022/05/24 04:43:38;;;;;;;;;;;18.40;90.40;;;;;;4975015;28;19961;-76
2022/05/24 04:46:04;;;;;;;;;;;18.40;90.40;;;;;;4957513;28;19964;-76
2022/05/24 04:48:29;;;;;;;;;;;18.40;90.40;;;;;;4957602;28;19906;-76
2022/05/24 04:50:56;;;;;;;;;;;18.40;90.50;;;;;;4971144;28;19909;-77
2022/05/24 04:53:21;;;;;;;;;;;18.30;90.50;;;;;;4949797;28;20285;-76
2022/05/24 04:55:50;;;;;;;;;;;18.30;90.60;;;;;;4958007;28;19907;-76
2022/05/24 04:58:16;;;;;;;;;;;18.30;90.60;;;;;;4953703;28;20274;-76
2022/05/24 05:00:41;;;;;;;;;;;18.30;90.60;;;;;;4969648;28;19929;-77
2022/05/24 05:03:11;;;;;;;;;;;18.30;90.60;;;;;;4943090;29;20418;-76
2022/05/24 05:05:37;;;;;;;;;;;18.30;90.60;;;;;;4940614;28;19949;-76
2022/05/24 05:08:02;;;;;;;;;;;18.30;90.70;;;;;;4967807;28;20382;-76
2022/05/24 05:10:28;;;;;;;;;;;18.30;90.70;;;;;;4968101;28;20297;-76
2022/05/24 05:12:53;;;;;;;;;;;18.30;90.70;;;;;;4947167;28;20457;-74
2022/05/24 05:15:19;;;;;;;;;;;18.30;90.70;;;;;;4967449;28;20005;-75
2022/05/24 05:17:44;;;;;;;;;;;18.30;90.70;;;;;;4948002;28;19990;-76
2022/05/24 05:20:10;;;;;;;;;;;18.30;90.70;;;;;;4931837;29;20012;-75
2022/05/24 05:22:38;;;;;;;;;;;18.30;90.60;;;;;;4944862;28;19933;-75
2022/05/24 05:25:13;;;;;;;;;;;18.30;90.60;;;;;;4947666;28;20609;-76
2022/05/24 05:27:38;;;;;;;;;;;18.40;90.50;;;;;;4950257;28;19957;-76
2022/05/24 05:32:50;;;;;;;;;;;18.40;90.40;;;;;;4969115;28;19921;-77
2022/05/24 05:35:16;;;;;;;;;;;18.40;90.40;;;;;;4956287;28;19917;-77
2022/05/24 05:37:42;;;;;;;;;;;18.40;90.40;;;;;;4951075;28;19910;-76
2022/05/24 05:40:08;;;;;;;;;;;18.40;90.40;;;;;;4951654;28;19910;-76
2022/05/24 05:42:34;;;;;;;;;;;18.40;90.70;;;;;;4967877;28;19933;-76
2022/05/24 05:45:01;;;;;;;;;;;18.40;90.50;;;;;;4943197;28;19918;-77
2022/05/24 05:47:26;;;;;;;;;;;18.40;90.50;;;;;;4968719;28;19913;-76
2022/05/24 05:49:52;;;;;;;;;;;18.40;90.50;;;;;;4985918;28;19933;-75
2022/05/24 05:52:18;;;;;;;;;;;18.30;90.50;;;;;;4968430;28;20138;-76
2022/05/24 05:54:43;;;;;;;;;;;18.30;90.50;;;;;;4986703;28;20288;-76
2022/05/24 05:57:11;;;;;;;;;;;18.30;90.60;;;;;;4969826;28;19917;-76
2022/05/24 05:59:36;;;;;;;;;;;18.30;90.60;;;;;;4970315;28;20000;-75
2022/05/24 06:02:04;;;;;;;;;;;18.30;90.50;;;;;;4969929;28;20053;-76
2022/05/24 06:04:29;;;;;;;;;;;18.30;90.50;;;;;;4969690;28;19913;-77
2022/05/24 06:06:55;;;;;;;;;;;18.30;90.50;;;;;;4987293;28;19910;-76
2022/05/24 06:09:20;;;;;;;;;;;18.30;90.50;;;;;;4969597;28;19913;-76
2022/05/24 06:11:46;;;;;;;;;;;18.30;90.50;;;;;;4987316;28;19957;-76
2022/05/24 06:14:11;;;;;;;;;;;18.30;90.80;;;;;;4969545;28;20000;-77
2022/05/24 06:16:37;;;;;;;;;;;18.30;90.60;;;;;;4986979;28;19992;-76
2022/05/24 06:19:04;;;;;;;;;;;18.30;90.60;;;;;;4970022;28;19910;-77
2022/05/24 06:21:33;;;;;;;;;;;18.30;90.40;;;;;;4973968;28;19917;-76
2022/05/24 06:24:03;;;;;;;;;;;18.40;90.40;;;;;;4990885;28;20424;-76
2022/05/24 06:26:28;;;;;;;;;;;18.40;90.30;;;;;;4973684;28;19910;-76
2022/05/24 06:28:54;;;;;;;;;;;18.40;90.30;;;;;;4973817;28;19956;-76
2022/05/24 06:31:19;;;;;;;;;;;18.40;90.20;;;;;;4990836;28;20300;-76
2022/05/24 06:33:45;;;;;;;;;;;18.50;90.30;;;;;;4973128;28;19917;-76
2022/05/24 06:36:10;;;;;;;;;;;18.40;90.50;;;;;;4973399;28;19914;-76
2022/05/24 06:38:37;;;;;;;;;;;18.40;90.30;;;;;;4973295;28;19906;-76
2022/05/24 06:41:04;;;;;;;;;;;18.40;90.40;;;;;;4990828;28;20683;-76
2022/05/24 06:43:29;;;;;;;;;;;18.40;90.40;;;;;;4990275;28;19910;-75
2022/05/24 06:45:54;;;;;;;;;;;18.30;90.40;;;;;;4991058;28;19910;-76
2022/05/24 06:48:20;;;;;;;;;;;18.30;90.50;;;;;;4973138;28;20357;-75
2022/05/24 06:50:45;;;;;;;;;;;18.30;90.50;;;;;;4990877;28;19909;-77
2022/05/24 06:53:11;;;;;;;;;;;18.30;90.50;;;;;;4990606;28;19914;-75
2022/05/24 06:55:37;;;;;;;;;;;18.30;90.60;;;;;;4972895;28;19917;-76
2022/05/24 06:58:02;;;;;;;;;;;18.30;90.60;;;;;;4990598;28;20103;-76
2022/05/24 07:03:13;;;;;;;;;;;18.30;90.60;;;;;;4990711;28;19956;-77
2022/05/24 07:05:39;;;;;;;;;;;18.30;90.60;;;;;;4972983;28;19916;-76
2022/05/24 07:08:05;;;;;;;;;;;18.30;90.70;;;;;;4972917;28;19910;-76
2022/05/24 07:10:31;;;;;;;;;;;18.30;90.70;;;;;;4973476;28;19909;-76
2022/05/24 07:13:01;;;;;;;;;;;18.30;90.60;;;;;;4990164;28;19917;-76
2022/05/24 07:15:27;;;;;;;;;;;18.30;90.70;;;;;;4972764;28;19920;-75
2022/05/24 07:17:53;;;;;;;;;;;18.30;90.60;;;;;;4990398;28;20001;-76
2022/05/24 07:20:19;;;;;;;;;;;18.30;90.60;;;;;;4990533;28;19925;-76
2022/05/24 07:22:44;;;;;;;;;;;18.30;90.50;;;;;;4990104;28;19910;-76
2022/05/24 07:25:10;;;;;;;;;;;18.30;90.40;;;;;;4990124;28;19949;-76
2022/05/24 07:27:36;;;;;;;;;;;18.40;90.30;;;;;;4972905;28;19949;-75
2022/05/24 07:30:04;;;;;;;;;;;18.40;90.40;;;;;;4972491;28;19910;-76
2022/05/24 07:32:31;;;;;;;;;;;18.40;90.40;;;;;;4972224;28;19917;-76
2022/05/24 07:34:59;;;;;;;;;;;18.40;90.40;;;;;;4989636;28;19925;-76
2022/05/24 07:37:24;;;;;;;;;;;18.40;90.40;;;;;;4972815;28;20320;-76
2022/05/24 07:45:47;;;;;;;;;;;18.30;90.40;;;;;;4974582;28;20004;-76
2022/05/24 07:48:04;;;;;;;;;;;18.30;90.50;;;;;;4954642;29;20677;-76
2022/05/24 07:50:29;;;;;;;;;;;18.30;90.50;;;;;;4934051;29;19913;-75
2022/05/24 07:52:54;;;;;;;;;;;18.30;90.50;;;;;;4951287;28;19911;-76
2022/05/24 07:55:20;;;;;;;;;;;18.30;90.60;;;;;;4951337;28;19917;-76
2022/05/24 07:57:45;;;;;;;;;;;18.30;90.60;;;;;;4951316;29;19908;-76
2022/05/24 08:00:12;;;;;;;;;;;18.30;90.60;;;;;;4951277;29;19914;-76
2022/05/24 08:02:38;;;;;;;;;;;18.20;90.50;;;;;;4951199;28;20259;-76
2022/05/24 08:05:04;;;;;;;;;;;18.20;90.60;;;;;;4970295;28;19910;-75
2022/05/24 08:07:30;;;;;;;;;;;18.20;90.60;;;;;;4955833;28;19910;-76
2022/05/24 08:09:56;;;;;;;;;;;18.20;90.60;;;;;;4953076;28;19910;-76
2022/05/24 08:12:21;;;;;;;;;;;18.20;90.60;;;;;;4970019;28;19920;-76
2022/05/24 08:14:46;;;;;;;;;;;18.20;90.60;;;;;;4970555;28;19910;-76
2022/05/24 08:17:12;;;;;;;;;;;18.30;90.60;;;;;;4952669;28;20366;-76
2022/05/24 08:19:37;;;;;;;;;;;18.30;90.40;;;;;;4970030;28;19906;-76
2022/05/24 08:22:03;;;;;;;;;;;18.30;90.30;;;;;;4970052;28;20025;-76
2022/05/24 08:24:29;;;;;;;;;;;18.30;90.40;;;;;;4968490;28;20412;-77
2022/05/24 08:26:54;;;;;;;;;;;18.30;90.40;;;;;;4951846;28;19910;-76
2022/05/24 08:29:20;;;;;;;;;;;18.40;90.20;;;;;;4953361;28;19949;-76
2022/05/24 08:31:45;;;;;;;;;;;18.40;90.30;;;;;;4949957;28;19981;-76
2022/05/24 08:34:10;;;;;;;;;;;18.40;90.20;;;;;;4969487;28;20385;-76
2022/05/24 08:36:37;;;;;;;;;;;18.40;90.30;;;;;;4952469;28;19913;-77
2022/05/24 08:39:03;;;;;;;;;;;18.30;90.30;;;;;;4969061;28;19910;-75
2022/05/24 08:41:31;;;;;;;;;;;18.40;90.40;;;;;;4968986;28;20342;-76
2022/05/24 08:43:56;;;;;;;;;;;18.30;90.40;;;;;;4968929;28;19941;-77
2022/05/24 08:49:18;;;;;;;;;;;18.30;90.20;;;;;;4970034;28;19913;-76
2022/05/24 08:51:47;;;;;;;;;;;18.30;90.40;;;;;;4969551;28;19910;-76
2022/05/24 08:54:14;;;;;;;;;;;18.30;90.50;;;;;;4969571;28;20455;-76
2022/05/24 08:56:43;;;;;;;;;;;18.30;90.50;;;;;;4952349;28;19910;-75
2022/05/24 08:59:14;;;;;;;;;;;18.30;90.50;;;;;;4969803;28;19957;-76
2022/05/24 09:01:41;;;;;;;;;;;18.30;90.40;;;;;;4952167;28;19913;-76
2022/05/24 09:04:08;;;;;;;;;;;18.30;90.50;;;;;;4969622;28;19914;-75
2022/05/24 09:06:38;;;;;;;;;;;18.30;90.50;;;;;;4952498;28;19910;-76
2022/05/24 09:09:24;;;;;;;;;;;18.30;90.50;;;;;;4969321;28;20010;-76
2022/05/24 09:11:49;;;;;;;;;;;18.30;90.50;;;;;;4952114;28;19917;-76
2022/05/24 09:14:22;;;;;;;;;;;18.30;90.40;;;;;;4969294;28;19964;-76
2022/05/24 09:17:00;;;;;;;;;;;18.30;90.40;;;;;;4951779;28;19944;-76
2022/05/24 09:19:27;;;;;;;;;;;18.30;90.40;;;;;;4969891;28;19910;-75
2022/05/24 09:21:53;;;;;;;;;;;18.30;90.40;;;;;;4969162;28;19956;-76
2022/05/24 09:24:22;;;;;;;;;;;18.30;90.40;;;;;;4956915;28;19917;-76
2022/05/24 09:27:22;;;;;;;;;;;18.40;90.30;;;;;;4949593;29;19911;-76
2022/05/24 09:29:54;;;;;;;;;;;18.40;90.20;;;;;;4911111;28;19917;-77
2022/05/24 09:32:20;;;;;;;;;;;18.40;90.10;;;;;;4957974;28;19922;-77
2022/05/24 09:34:45;;;;;;;;;;;18.40;90.10;;;;;;4970820;28;19980;-77
2022/05/24 09:37:23;;;;;;;;;;;18.40;90.10;;;;;;4988176;28;20385;-76
2022/05/24 09:39:59;;;;;;;;;;;18.40;90.10;;;;;;4966097;28;19910;-75
2022/05/24 09:42:30;;;;;;;;;;;18.50;90.10;;;;;;4968314;28;19941;-77
2022/05/24 09:45:15;;;;;;;;;;;18.50;90.10;;;;;;4968378;28;20017;-76
2022/05/24 09:47:43;;;;;;;;;;;18.50;90.10;;;;;;4968564;28;20001;-76
2022/05/24 09:50:14;;;;;;;;;;;18.50;90.10;;;;;;4968920;28;20263;-76
2022/05/24 09:52:40;;;;;;;;;;;18.50;90.10;;;;;;4950495;28;19913;-76
2022/05/24 09:55:05;;;;;;;;;;;18.50;90.10;;;;;;4950912;28;19913;-76
2022/05/24 09:57:33;;;;;;;;;;;18.50;90.10;;;;;;4950726;28;20026;-76
2022/05/24 10:00:00;;;;;;;;;;;18.50;90.00;;;;;;4949930;28;19907;-75
2022/05/24 10:02:28;;;;;;;;;;;18.50;90.00;;;;;;4966108;28;19914;-76
2022/05/24 10:04:54;;;;;;;;;;;18.50;90.00;;;;;;4956820;28;19910;-76
2022/05/24 10:07:24;;;;;;;;;;;18.50;90.00;;;;;;4948554;28;19907;-76
2022/05/24 10:09:56;;;;;;;;;;;18.50;90.00;;;;;;4949920;28;19988;-76
2022/05/24 10:12:41;;;;;;;;;;;18.50;90.00;;;;;;4947382;29;19958;-76
2022/05/24 10:15:15;;;;;;;;;;;18.50;90.00;;;;;;4944846;29;20752;-75
2022/05/24 10:17:59;;;;;;;;;;;18.60;90.00;;;;;;4929445;29;20358;-75
2022/05/24 10:20:33;;;;;;;;;;;18.60;89.80;;;;;;4946662;29;19910;-75
2022/05/24 10:23:11;;;;;;;;;;;18.70;89.50;;;;;;4930344;29;19911;-74
2022/05/24 10:25:43;;;;;;;;;;;18.70;89.10;;;;;;4948338;29;19910;-75
2022/05/24 10:28:26;;;;;;;;;;;18.80;89.00;;;;;;4948115;29;20415;-74
2022/05/24 10:30:54;;;;;;;;;;;18.70;89.00;;;;;;4948021;29;19915;-74
2022/05/24 10:39:16;;;;;;;;;;;18.60;89.30;;;;;;4948266;29;19965;-75
2022/05/24 10:41:47;;;;;;;;;;;18.60;89.60;;;;;;4930536;28;20485;-75
2022/05/24 10:44:18;;;;;;;;;;;18.60;89.80;;;;;;4947943;29;19910;-76
2022/05/24 10:46:44;;;;;;;;;;;18.60;89.90;;;;;;4930573;29;20381;-75
2022/05/24 10:49:17;;;;;;;;;;;18.60;90.00;;;;;;4930875;29;19910;-76
2022/05/24 10:51:49;;;;;;;;;;;18.50;90.00;;;;;;4947604;28;19914;-76
2022/05/24 10:54:23;;;;;;;;;;;18.50;90.00;;;;;;4930280;29;19910;-75
2022/05/24 10:56:53;;;;;;;;;;;18.50;90.10;;;;;;4948316;29;19917;-75
2022/05/24 10:59:37;;;;;;;;;;;18.50;90.10;;;;;;4930782;29;19910;-76
2022/05/24 11:02:08;;;;;;;;;;;18.50;90.10;;;;;;4930811;29;19910;-75
2022/05/24 11:04:46;;;;;;;;;;;18.50;90.00;;;;;;4948143;29;19931;-76
2022/05/24 11:07:14;;;;;;;;;;;18.50;90.00;;;;;;4933874;29;19915;-75
2022/05/24 11:09:54;;;;;;;;;;;18.50;90.00;;;;;;4951762;29;19975;-75
2022/05/24 11:12:23;;;;;;;;;;;18.50;90.00;;;;;;4951030;28;19910;-75
2022/05/24 11:15:09;;;;;;;;;;;18.50;90.10;;;;;;4933571;29;19906;-75
2022/05/24 11:17:35;;;;;;;;;;;18.50;90.10;;;;;;4951440;29;19910;-74
2022/05/24 11:20:04;;;;;;;;;;;18.50;90.10;;;;;;4951058;29;19997;-76
2022/05/24 11:22:48;;;;;;;;;;;18.60;90.00;;;;;;4951176;28;20008;-74
2022/05/24 11:25:32;;;;;;;;;;;18.60;90.00;;;;;;4950936;29;19910;-75
2022/05/24 11:28:01;;;;;;;;;;;18.60;89.80;;;;;;4951132;29;20002;-74
2022/05/24 11:30:37;;;;;;;;;;;18.70;89.60;;;;;;4933819;29;19933;-75
2022/05/24 11:33:02;;;;;;;;;;;18.70;89.40;;;;;;4950526;28;20448;-74
2022/05/24 11:35:32;;;;;;;;;;;18.70;89.30;;;;;;4933537;29;19985;-75
2022/05/24 11:38:12;;;;;;;;;;;18.70;89.30;;;;;;4950652;28;19910;-76
2022/05/24 11:40:39;;;;;;;;;;;18.70;89.30;;;;;;4950616;29;20374;-76
2022/05/24 11:43:05;;;;;;;;;;;18.60;89.40;;;;;;4950146;28;20345;-74
2022/05/24 11:45:34;;;;;;;;;;;18.60;89.50;;;;;;4933331;29;19910;-75
2022/05/24 11:48:06;;;;;;;;;;;18.60;89.60;;;;;;4950383;28;20000;-75
2022/05/24 11:50:31;;;;;;;;;;;18.60;89.80;;;;;;4933398;29;19946;-76
2022/05/24 11:53:15;;;;;;;;;;;18.60;90.00;;;;;;4932937;29;20397;-75
2022/05/24 11:55:46;;;;;;;;;;;18.50;90.00;;;;;;4933144;29;20391;-75
2022/05/24 11:58:20;;;;;;;;;;;18.50;90.00;;;;;;4950048;28;19957;-74
2022/05/24 12:00:57;;;;;;;;;;;18.50;90.00;;;;;;4933262;29;19906;-75
2022/05/24 12:09:13;;;;;;;;;;;18.50;90.00;;;;;;4950574;29;20374;-76
2022/05/24 12:11:39;;;;;;;;;;;18.50;89.70;;;;;;4950403;28;19921;-74
2022/05/24 12:14:13;;;;;;;;;;;18.60;89.80;;;;;;4949901;28;19910;-76
2022/05/24 12:16:46;;;;;;;;;;;18.60;89.80;;;;;;4932635;28;19910;-74
2022/05/24 12:19:31;;;;;;;;;;;18.60;89.70;;;;;;4932447;29;19942;-75
2022/05/24 12:21:57;;;;;;;;;;;18.60;89.50;;;;;;4939835;28;19961;-74
2022/05/24 12:24:29;;;;;;;;;;;18.70;89.40;;;;;;4949805;28;20402;-75
2022/05/24 12:27:13;;;;;;;;;;;18.70;89.20;;;;;;4950034;29;19910;-75
2022/05/24 12:30:03;;;;;;;;;;;18.70;89.10;;;;;;4950253;28;20259;-74
2022/05/24 12:32:31;;;;;;;;;;;18.70;89.00;;;;;;4921578;28;20072;-74
2022/05/24 12:35:07;;;;;;;;;;;18.70;89.00;;;;;;4932271;29;20005;-74
2022/05/24 12:37:35;;;;;;;;;;;18.70;89.10;;;;;;4949845;29;19910;-74
2022/05/24 12:40:20;;;;;;;;;;;18.70;89.20;;;;;;4932902;29;19910;-75
2022/05/24 12:42:56;;;;;;;;;;;18.70;89.40;;;;;;4949823;28;19910;-74
2022/05/24 12:45:31;;;;;;;;;;;18.70;89.40;;;;;;4949720;29;20366;-75
2022/05/24 12:47:57;;;;;;;;;;;18.70;89.50;;;;;;4932395;29;19911;-75
2022/05/24 12:50:37;;;;;;;;;;;18.60;89.50;;;;;;4932816;29;19910;-74
2022/05/24 12:53:04;;;;;;;;;;;18.60;89.50;;;;;;4949238;28;20389;-76
2022/05/24 12:58:33;;;;;;;;;;;18.60;89.60;;;;;;4949724;29;19918;-75
2022/05/24 13:01:15;;;;;;;;;;;18.60;89.70;;;;;;4931672;29;19954;-74
2022/05/24 13:03:50;;;;;;;;;;;18.60;89.70;;;;;;4931324;29;19906;-75
2022/05/24 13:06:26;;;;;;;;;;;18.60;89.80;;;;;;4931935;29;19910;-75
2022/05/24 13:09:27;;;;;;;;;;;18.60;89.80;;;;;;4931715;29;19999;-76
2022/05/24 13:11:55;;;;;;;;;;;18.60;89.90;;;;;;4904070;29;20474;-75
2022/05/24 13:14:39;;;;;;;;;;;18.60;89.80;;;;;;4936056;28;19921;-75
2022/05/24 13:17:08;;;;;;;;;;;18.60;89.70;;;;;;4947138;28;19910;-75
2022/05/24 13:19:52;;;;;;;;;;;18.60;89.50;;;;;;4947768;29;19910;-75
2022/05/24 13:22:19;;;;;;;;;;;18.70;89.50;;;;;;4956787;28;19913;-75
2022/05/24 13:24:53;;;;;;;;;;;18.70;89.40;;;;;;4950253;28;19940;-74
2022/05/24 13:27:18;;;;;;;;;;;18.70;89.20;;;;;;4943999;28;20587;-73
2022/05/24 13:35:22;;;;;;;;;;;18.70;89.40;;;;;;4967177;28;20460;-74
2022/05/24 13:37:50;;;;;;;;;;;18.60;89.50;;;;;;4949411;28;19913;-74
2022/05/24 13:40:15;;;;;;;;;;;18.60;89.60;;;;;;4965590;28;19999;-74
2022/05/24 13:42:54;;;;;;;;;;;18.60;89.60;;;;;;4966584;28;20283;-74
2022/05/24 13:45:22;;;;;;;;;;;18.60;89.70;;;;;;4949595;28;19956;-74
2022/05/24 13:47:57;;;;;;;;;;;18.60;89.80;;;;;;4967558;28;19906;-74
2022/05/24 13:50:29;;;;;;;;;;;18.60;89.90;;;;;;4967477;28;20325;-74
2022/05/24 13:52:56;;;;;;;;;;;18.60;90.00;;;;;;4949765;28;19977;-74
2022/05/24 13:55:27;;;;;;;;;;;18.60;90.00;;;;;;4949556;28;20083;-75
2022/05/24 13:58:05;;;;;;;;;;;18.60;90.00;;;;;;4948619;29;20233;-74
2022/05/24 14:00:34;;;;;;;;;;;18.60;90.00;;;;;;4930792;29;19913;-75
2022/05/24 14:03:12;;;;;;;;;;;18.50;90.00;;;;;;4948213;28;19910;-76
2022/05/24 14:05:37;;;;;;;;;;;18.50;90.00;;;;;;4930237;29;19910;-75
2022/05/24 14:08:03;;;;;;;;;;;18.50;90.00;;;;;;4947773;28;19913;-74
2022/05/24 14:10:29;;;;;;;;;;;18.50;90.10;;;;;;4930486;29;20400;-74
2022/05/24 14:12:55;;;;;;;;;;;18.50;90.10;;;;;;4930508;29;19914;-77
2022/05/24 14:15:21;;;;;;;;;;;18.60;90.00;;;;;;4961325;28;19917;-74
2022/05/24 14:17:48;;;;;;;;;;;18.60;90.00;;;;;;4948471;28;19910;-74
2022/05/24 14:20:14;;;;;;;;;;;18.60;89.90;;;;;;4947328;28;20248;-76
2022/05/24 14:22:39;;;;;;;;;;;18.60;89.70;;;;;;4961338;28;20432;-74
2022/05/24 14:25:05;;;;;;;;;;;18.60;89.60;;;;;;4955521;28;19906;-75
2022/05/24 14:27:31;;;;;;;;;;;18.70;89.60;;;;;;4944218;28;20949;-75
2022/05/24 14:29:57;;;;;;;;;;;18.70;89.60;;;;;;4960472;28;19917;-75
2022/05/24 14:32:22;;;;;;;;;;;18.70;89.60;;;;;;4965431;28;20416;-74
2022/05/24 14:34:48;;;;;;;;;;;18.60;89.70;;;;;;4949261;28;19906;-74
2022/05/24 14:37:15;;;;;;;;;;;18.60;89.80;;;;;;4949816;28;19921;-75
2022/05/24 14:39:41;;;;;;;;;;;18.60;90.00;;;;;;4940465;28;19932;-75
2022/05/24 14:42:06;;;;;;;;;;;18.60;90.00;;;;;;4970176;28;19910;-74
2022/05/24 14:44:35;;;;;;;;;;;18.60;90.00;;;;;;4962676;28;19926;-75
2022/05/24 14:47:01;;;;;;;;;;;18.50;90.00;;;;;;4964807;28;20014;-74
2022/05/24 14:49:27;;;;;;;;;;;18.50;90.10;;;;;;4951558;28;20000;-74
2022/05/24 14:51:54;;;;;;;;;;;18.50;90.10;;;;;;4946732;28;20017;-76
2022/05/24 14:54:21;;;;;;;;;;;18.50;90.10;;;;;;4968491;28;19961;-75
2022/05/24 14:56:47;;;;;;;;;;;18.50;90.40;;;;;;4970943;28;20394;-75
2022/05/24 14:59:13;;;;;;;;;;;18.50;90.20;;;;;;4953152;28;19921;-75
2022/05/24 15:01:40;;;;;;;;;;;18.50;90.20;;;;;;4953843;28;20421;-75
2022/05/24 15:04:06;;;;;;;;;;;18.40;90.20;;;;;;4952832;28;19913;-75
2022/05/24 15:06:33;;;;;;;;;;;18.40;90.30;;;;;;4970495;28;20341;-77
2022/05/24 15:17:11;;;;;;;;;;;18.40;90.20;;;;;;4971317;28;19916;-76
2022/05/24 15:19:41;;;;;;;;;;;18.50;90.20;;;;;;4970578;28;20286;-77
2022/05/24 15:22:06;;;;;;;;;;;18.50;90.10;;;;;;4970750;28;19910;-76
2022/05/24 15:24:35;;;;;;;;;;;18.60;90.10;;;;;;4953050;28;19939;-76
2022/05/24 15:27:03;;;;;;;;;;;18.50;90.00;;;;;;4970589;28;20025;-74